Time;durP1;ratioP1;P1;durP2;ratioP2;P2;SDS_P1;SDS_P2;PMS_P1;PMS_P2;Temp;Humidity;BMP_temperature;BMP_pressure;BME280_temperature;BME280_humidity;BME280_pressure;Samples;Min_cycle;Max_cycle;Signal;HPM_P1;HPM_P2
2023/01/05 00:01:47;;;;;;;2.50;0.25;;;;;;;;;;5000825;28;20042;-61
2023/01/05 00:04:13;;;;;;;4.25;0.50;;;;;;;;;;5000772;28;20458;-61
2023/01/05 00:06:38;;;;;;;2.92;0.50;;;;;;;;;;4997180;28;20545;-62
2023/01/05 00:09:04;;;;;;;3.07;0.33;;;;;;;;;;4989918;28;20134;-62
2023/01/05 00:22:29;;;;;;;2.78;0.50;;;;;;;;;;5009556;28;20080;-62
2023/01/05 00:24:54;;;;;;;5.45;0.75;;;;;;;;;;5007035;28;20032;-61
2023/01/05 00:27:19;;;;;;;2.70;0.57;;;;;;;;;;4991325;28;20026;-63
2023/01/05 00:29:44;;;;;;;3.33;0.52;;;;;;;;;;4997254;28;20026;-61
2023/01/05 00:32:09;;;;;;;4.22;0.60;;;;;;;;;;5006255;28;20025;-63
2023/01/05 00:34:35;;;;;;;4.60;0.70;;;;;;;;;;5010806;28;20026;-62
2023/01/05 00:37:00;;;;;;;2.45;0.57;;;;;;;;;;5007440;28;20022;-61
2023/01/05 00:39:25;;;;;;;3.38;0.68;;;;;;;;;;5018170;28;20030;-62
2023/01/05 00:41:50;;;;;;;2.45;0.60;;;;;;;;;;5008423;28;20038;-61
2023/01/05 00:44:15;;;;;;;3.78;0.52;;;;;;;;;;4996372;28;20506;-61
2023/01/05 00:46:40;;;;;;;3.42;0.52;;;;;;;;;;5000369;28;20030;-62
2023/01/05 00:49:05;;;;;;;3.33;0.63;;;;;;;;;;4998088;28;20045;-62
2023/01/05 00:51:31;;;;;;;2.70;0.50;;;;;;;;;;4998342;28;20533;-62
2023/01/05 00:53:56;;;;;;;6.03;0.73;;;;;;;;;;4992867;28;20049;-63
2023/01/05 00:56:21;;;;;;;4.30;0.50;;;;;;;;;;4991257;28;20042;-61
2023/01/05 00:58:46;;;;;;;2.43;0.57;;;;;;;;;;4992414;28;20464;-61
2023/01/05 01:01:12;;;;;;;2.67;0.50;;;;;;;;;;4986388;28;20077;-61
2023/01/05 01:03:37;;;;;;;4.22;0.80;;;;;;;;;;5001996;28;20029;-62
2023/01/05 01:06:02;;;;;;;3.40;0.43;;;;;;;;;;5003946;28;20024;-62
2023/01/05 01:08:27;;;;;;;3.87;0.50;;;;;;;;;;5001117;28;20023;-62
2023/01/05 01:10:52;;;;;;;3.60;0.50;;;;;;;;;;4988467;28;20479;-61
2023/01/05 01:13:17;;;;;;;3.25;0.50;;;;;;;;;;4991746;28;20041;-62
2023/01/05 01:15:43;;;;;;;2.67;0.40;;;;;;;;;;4993183;28;20027;-62
2023/01/05 01:18:08;;;;;;;4.65;0.55;;;;;;;;;;5001162;28;20097;-62
2023/01/05 01:20:33;;;;;;;2.10;0.40;;;;;;;;;;5001043;28;20033;-61
2023/01/05 01:23:01;;;;;;;3.25;0.55;;;;;;;;;;5000080;28;20030;-62
2023/01/05 01:25:27;;;;;;;4.05;0.68;;;;;;;;;;4998187;28;20033;-62
2023/01/05 01:27:52;;;;;;;4.10;0.40;;;;;;;;;;4999564;28;20026;-60
2023/01/05 01:30:18;;;;;;;4.63;0.57;;;;;;;;;;4993979;28;20100;-61
2023/01/05 01:32:43;;;;;;;2.80;0.70;;;;;;;;;;4996641;28;20030;-62
2023/01/05 01:35:09;;;;;;;3.35;0.40;;;;;;;;;;5003315;28;20030;-62
2023/01/05 01:37:34;;;;;;;2.97;0.60;;;;;;;;;;5002825;28;20022;-61
2023/01/05 01:39:59;;;;;;;4.55;0.70;;;;;;;;;;5002321;28;20568;-62
2023/01/05 01:42:24;;;;;;;5.00;0.70;;;;;;;;;;4992711;28;20038;-61
2023/01/05 01:44:51;;;;;;;3.97;0.77;;;;;;;;;;5003231;28;20030;-62
2023/01/05 01:47:29;;;;;;;4.82;0.65;;;;;;;;;;4994889;28;20037;-63
2023/01/05 01:49:56;;;;;;;3.95;0.70;;;;;;;;;;5002374;28;20039;-61
2023/01/05 01:52:22;;;;;;;3.35;0.60;;;;;;;;;;4997521;28;20022;-61
2023/01/05 01:54:49;;;;;;;4.13;0.60;;;;;;;;;;5006531;28;20390;-61
2023/01/05 01:57:14;;;;;;;2.88;0.60;;;;;;;;;;4996184;28;20105;-61
2023/01/05 01:59:40;;;;;;;3.85;0.68;;;;;;;;;;4998679;28;20117;-61
2023/01/05 02:02:05;;;;;;;7.88;1.10;;;;;;;;;;4997097;28;20384;-60
2023/01/05 02:04:31;;;;;;;4.28;0.60;;;;;;;;;;5008568;28;20045;-62
2023/01/05 02:06:56;;;;;;;5.32;0.80;;;;;;;;;;5000577;28;20037;-60
2023/01/05 02:09:22;;;;;;;3.97;1.00;;;;;;;;;;5000518;28;20029;-60
2023/01/05 02:11:51;;;;;;;6.05;1.05;;;;;;;;;;5005643;28;20093;-61
2023/01/05 02:14:37;;;;;;;7.28;0.90;;;;;;;;;;5008324;28;20495;-63
2023/01/05 02:17:13;;;;;;;6.25;0.80;;;;;;;;;;4992152;28;20034;-61
2023/01/05 02:19:51;;;;;;;4.78;0.65;;;;;;;;;;4992428;28;20057;-61
2023/01/05 02:22:29;;;;;;;6.95;0.88;;;;;;;;;;4999991;28;20038;-62
2023/01/05 02:25:13;;;;;;;5.30;0.80;;;;;;;;;;5000597;28;20018;-62
2023/01/05 02:27:47;;;;;;;5.95;0.80;;;;;;;;;;4995626;28;20085;-62
2023/01/05 02:30:32;;;;;;;7.32;0.90;;;;;;;;;;4999027;28;20031;-61
2023/01/05 02:32:57;;;;;;;4.50;1.10;;;;;;;;;;4993179;28;20416;-61
2023/01/05 02:35:40;;;;;;;4.57;0.80;;;;;;;;;;5001500;28;20442;-61
2023/01/05 02:38:05;;;;;;;5.25;0.85;;;;;;;;;;5004498;28;20022;-61
2023/01/05 02:40:37;;;;;;;4.68;0.60;;;;;;;;;;4998580;28;20058;-61
2023/01/05 02:43:03;;;;;;;6.20;0.88;;;;;;;;;;5000030;28;20044;-61
2023/01/05 02:45:28;;;;;;;3.85;0.65;;;;;;;;;;5002826;28;20512;-61
2023/01/05 02:47:53;;;;;;;5.97;0.90;;;;;;;;;;4994739;28;20356;-61
2023/01/05 02:50:24;;;;;;;5.80;0.73;;;;;;;;;;4991647;28;20049;-62
2023/01/05 02:52:57;;;;;;;5.25;0.80;;;;;;;;;;4987353;28;20080;-61
2023/01/05 02:55:28;;;;;;;5.53;0.75;;;;;;;;;;4997433;28;20029;-61
2023/01/05 02:58:06;;;;;;;5.18;1.05;;;;;;;;;;4993579;28;20023;-61
2023/01/05 03:00:37;;;;;;;7.25;1.10;;;;;;;;;;4997465;28;20036;-61
2023/01/05 03:03:07;;;;;;;6.50;0.88;;;;;;;;;;4985697;28;20025;-62
2023/01/05 03:05:35;;;;;;;5.72;0.88;;;;;;;;;;4988500;28;20026;-61
2023/01/05 03:08:07;;;;;;;5.63;1.00;;;;;;;;;;4987501;28;20025;-61
2023/01/05 03:16:07;;;;;;;4.63;0.80;;;;;;;;;;5005397;28;20079;-61
2023/01/05 03:19:34;;;;;;;4.88;0.80;;;;;;;;;;5014239;28;20029;-61
2023/01/05 03:21:19;;;;;;;6.57;0.82;;;;;;;;;;4992511;28;20381;-61
2023/01/05 03:37:31;;;;;;;8.15;1.10;;;;;;;;;;5003058;28;20064;-61
2023/01/05 03:39:58;;;;;;;8.55;1.17;;;;;;;;;;5001351;28;20378;-62
2023/01/05 03:42:23;;;;;;;;;;;;;;;;;;4996868;28;20026;-60
2023/01/05 03:44:48;;;;;;;4.93;0.95;;;;;;;;;;4995260;28;19909;-61
2023/01/05 03:47:14;;;;;;;4.67;0.77;;;;;;;;;;5007325;28;20053;-61
2023/01/05 03:49:39;;;;;;;6.93;0.90;;;;;;;;;;5008096;28;20021;-61
2023/01/05 03:52:04;;;;;;;10.25;1.27;;;;;;;;;;4993088;28;20022;-61
2023/01/05 03:54:29;;;;;;;8.57;1.00;;;;;;;;;;5005755;28;20028;-62
2023/01/05 03:56:54;;;;;;;8.23;0.90;;;;;;;;;;5002188;28;20524;-63
2023/01/05 03:59:20;;;;;;;6.15;1.08;;;;;;;;;;4997080;28;20033;-61
2023/01/05 04:01:45;;;;;;;6.35;1.00;;;;;;;;;;4989695;28;20050;-62
2023/01/05 04:04:10;;;;;;;5.90;0.90;;;;;;;;;;4993799;28;20033;-60
2023/01/05 04:06:36;;;;;;;7.27;0.93;;;;;;;;;;5000482;28;20021;-61
2023/01/05 04:09:01;;;;;;;6.93;1.67;;;;;;;;;;4993243;28;20018;-61
2023/01/05 04:11:26;;;;;;;7.35;0.98;;;;;;;;;;4992108;28;20089;-62
2023/01/05 04:13:51;;;;;;;5.45;0.90;;;;;;;;;;4998564;28;20018;-62
2023/01/05 04:16:16;;;;;;;8.52;1.10;;;;;;;;;;4991481;28;20065;-62
2023/01/05 04:18:42;;;;;;;7.90;1.20;;;;;;;;;;4996081;28;20022;-61
2023/01/05 04:21:07;;;;;;;6.80;1.00;;;;;;;;;;5000807;28;20040;-61
2023/01/05 04:23:33;;;;;;;9.18;1.40;;;;;;;;;;4997134;28;20014;-62
2023/01/05 04:25:58;;;;;;;7.20;0.93;;;;;;;;;;5003753;28;20030;-61
2023/01/05 04:28:23;;;;;;;4.93;0.93;;;;;;;;;;5001036;28;20085;-63
2023/01/05 04:30:50;;;;;;;8.00;1.05;;;;;;;;;;4998550;28;20057;-61
2023/01/05 04:33:15;;;;;;;6.28;1.02;;;;;;;;;;4994688;28;20137;-61
2023/01/05 04:35:40;;;;;;;10.37;1.40;;;;;;;;;;4994174;28;20498;-62
2023/01/05 04:38:05;;;;;;;5.67;1.13;;;;;;;;;;4998250;28;20531;-62
2023/01/05 04:40:30;;;;;;;13.05;1.25;;;;;;;;;;5006256;28;20033;-62
2023/01/05 04:42:55;;;;;;;5.57;1.00;;;;;;;;;;4986420;28;20031;-61
2023/01/05 04:45:21;;;;;;;6.47;1.07;;;;;;;;;;4999565;28;20022;-62
2023/01/05 04:47:46;;;;;;;6.15;0.90;;;;;;;;;;4992752;28;20043;-62
2023/01/05 04:50:11;;;;;;;6.20;0.93;;;;;;;;;;5000432;28;20014;-62
2023/01/05 04:52:36;;;;;;;5.90;0.80;;;;;;;;;;5000531;28;20045;-61
2023/01/05 04:55:02;;;;;;;6.63;1.00;;;;;;;;;;4999083;28;20057;-63
2023/01/05 04:57:27;;;;;;;6.10;1.30;;;;;;;;;;5012446;28;20529;-61
2023/01/05 04:59:52;;;;;;;9.68;1.33;;;;;;;;;;5000054;28;20021;-62
2023/01/05 05:02:17;;;;;;;6.05;0.90;;;;;;;;;;4999232;28;20506;-61
2023/01/05 05:04:42;;;;;;;6.45;0.98;;;;;;;;;;5006110;28;20106;-62
2023/01/05 05:07:07;;;;;;;8.63;1.07;;;;;;;;;;5003913;28;20026;-63
2023/01/05 05:09:32;;;;;;;7.78;1.00;;;;;;;;;;5004741;28;20133;-61
2023/01/05 05:11:58;;;;;;;7.90;0.93;;;;;;;;;;4995381;28;20026;-62
2023/01/05 05:14:23;;;;;;;5.57;1.00;;;;;;;;;;5008542;28;20038;-61
2023/01/05 05:16:48;;;;;;;7.28;1.30;;;;;;;;;;4988107;28;20026;-61
2023/01/05 05:19:13;;;;;;;5.67;1.00;;;;;;;;;;5002243;28;20050;-61
2023/01/05 05:21:38;;;;;;;7.17;1.20;;;;;;;;;;4996361;28;20042;-63
2023/01/05 05:24:03;;;;;;;7.32;1.10;;;;;;;;;;4993572;28;20010;-62
2023/01/05 05:26:29;;;;;;;7.70;1.00;;;;;;;;;;4999948;28;20030;-61
2023/01/05 05:28:56;;;;;;;9.38;1.50;;;;;;;;;;4987590;28;20427;-61
2023/01/05 05:31:21;;;;;;;9.52;1.25;;;;;;;;;;4990782;28;20088;-61
2023/01/05 05:33:46;;;;;;;7.97;1.20;;;;;;;;;;4988897;28;20022;-64
2023/01/05 05:36:11;;;;;;;9.90;1.00;;;;;;;;;;4985494;28;20077;-62
2023/01/05 05:38:36;;;;;;;9.50;1.30;;;;;;;;;;4991347;28;20028;-62
2023/01/05 05:41:01;;;;;;;5.07;1.00;;;;;;;;;;4987820;28;20061;-62
2023/01/05 05:43:26;;;;;;;6.80;1.08;;;;;;;;;;4998639;28;20574;-62
2023/01/05 05:45:52;;;;;;;10.45;1.23;;;;;;;;;;4988032;28;20046;-62
2023/01/05 05:48:17;;;;;;;8.90;1.30;;;;;;;;;;4994348;28;20034;-62
2023/01/05 05:50:43;;;;;;;7.25;1.13;;;;;;;;;;4999917;28;20049;-61
2023/01/05 05:53:08;;;;;;;5.30;1.20;;;;;;;;;;4992000;28;20066;-61
2023/01/05 05:55:33;;;;;;;7.10;1.20;;;;;;;;;;5008707;28;20025;-62
2023/01/05 05:57:58;;;;;;;5.60;0.97;;;;;;;;;;5002200;28;20022;-62
2023/01/05 06:00:23;;;;;;;8.43;1.40;;;;;;;;;;4987862;28;20113;-61
2023/01/05 06:02:49;;;;;;;7.03;1.33;;;;;;;;;;5002292;28;20026;-62
2023/01/05 06:05:14;;;;;;;6.35;1.02;;;;;;;;;;4999490;28;20030;-61
2023/01/05 06:07:39;;;;;;;5.87;1.20;;;;;;;;;;4992454;28;20097;-63
2023/01/05 06:10:04;;;;;;;6.57;1.20;;;;;;;;;;4993325;28;20384;-61
2023/01/05 06:12:30;;;;;;;6.93;1.48;;;;;;;;;;4987281;28;20098;-61
2023/01/05 06:14:55;;;;;;;6.10;1.15;;;;;;;;;;5000698;28;20030;-61
2023/01/05 06:17:20;;;;;;;6.82;1.10;;;;;;;;;;4987977;28;20082;-61
2023/01/05 06:19:45;;;;;;;8.67;1.20;;;;;;;;;;4983663;28;20494;-62
2023/01/05 06:22:10;;;;;;;8.32;1.15;;;;;;;;;;4995565;28;20487;-62
2023/01/05 06:24:35;;;;;;;7.43;1.30;;;;;;;;;;4996188;28;20041;-62
2023/01/05 06:27:00;;;;;;;7.90;1.20;;;;;;;;;;4986623;28;20023;-62
2023/01/05 06:29:25;;;;;;;8.77;1.50;;;;;;;;;;4990270;28;20072;-62
2023/01/05 06:31:51;;;;;;;7.28;1.30;;;;;;;;;;4995134;28;20105;-59
2023/01/05 06:34:16;;;;;;;10.60;2.13;;;;;;;;;;4995373;28;20026;-61
2023/01/05 06:36:41;;;;;;;9.98;1.40;;;;;;;;;;4995794;28;20351;-60
2023/01/05 06:39:06;;;;;;;8.13;1.33;;;;;;;;;;4996067;28;20467;-60
2023/01/05 06:41:34;;;;;;;6.88;1.30;;;;;;;;;;4992896;28;20038;-61
2023/01/05 06:43:59;;;;;;;7.13;1.30;;;;;;;;;;4992577;28;20109;-62
2023/01/05 06:46:24;;;;;;;5.78;1.15;;;;;;;;;;4991465;28;20526;-62
2023/01/05 06:48:50;;;;;;;5.90;1.37;;;;;;;;;;4999587;28;20046;-63
2023/01/05 06:51:15;;;;;;;7.15;1.27;;;;;;;;;;5012087;28;20022;-63
2023/01/05 06:53:40;;;;;;;8.02;1.70;;;;;;;;;;5010724;28;20419;-63
2023/01/05 06:56:05;;;;;;;6.67;1.00;;;;;;;;;;5002250;28;20029;-63
2023/01/05 06:58:30;;;;;;;7.27;1.40;;;;;;;;;;5004344;28;20069;-63
2023/01/05 07:00:55;;;;;;;9.73;1.30;;;;;;;;;;4999185;28;20034;-64
2023/01/05 07:03:23;;;;;;;8.20;1.45;;;;;;;;;;4990117;28;20109;-61
2023/01/05 07:05:48;;;;;;;4.20;0.90;;;;;;;;;;5006330;28;20040;-61
2023/01/05 07:08:13;;;;;;;8.60;1.42;;;;;;;;;;4992045;28;20019;-61
2023/01/05 07:10:38;;;;;;;8.00;1.20;;;;;;;;;;4991657;28;20434;-62
2023/01/05 07:13:03;;;;;;;6.10;1.20;;;;;;;;;;4992978;28;20156;-62
2023/01/05 07:15:28;;;;;;;12.10;1.30;;;;;;;;;;4986637;28;20117;-61
2023/01/05 07:17:54;;;;;;;10.90;1.30;;;;;;;;;;4988694;28;20026;-62
2023/01/05 07:20:19;;;;;;;7.85;1.30;;;;;;;;;;5001110;28;20038;-61
2023/01/05 07:22:44;;;;;;;7.30;1.30;;;;;;;;;;5007727;28;20427;-60
2023/01/05 07:25:10;;;;;;;7.07;1.20;;;;;;;;;;4992026;28;20032;-62
2023/01/05 07:27:35;;;;;;;7.53;1.55;;;;;;;;;;5002069;28;20030;-61
2023/01/05 07:30:00;;;;;;;7.65;1.20;;;;;;;;;;4991913;28;20030;-62
2023/01/05 07:32:25;;;;;;;8.68;1.35;;;;;;;;;;4992340;28;20074;-61
2023/01/05 07:34:50;;;;;;;7.95;1.13;;;;;;;;;;4992408;28;20514;-61
2023/01/05 07:37:15;;;;;;;5.80;1.15;;;;;;;;;;4991558;28;20022;-61
2023/01/05 07:39:41;;;;;;;7.32;1.20;;;;;;;;;;4991145;28;20019;-61
2023/01/05 07:42:06;;;;;;;6.13;1.37;;;;;;;;;;4992000;28;20475;-61
2023/01/05 07:44:31;;;;;;;10.90;1.63;;;;;;;;;;4991705;28;21283;-62
2023/01/05 07:46:57;;;;;;;7.43;1.30;;;;;;;;;;4992377;28;20026;-62
2023/01/05 07:49:22;;;;;;;9.93;1.48;;;;;;;;;;4991938;28;20022;-61
2023/01/05 07:51:48;;;;;;;9.38;1.42;;;;;;;;;;4987559;28;20038;-62
2023/01/05 07:54:13;;;;;;;8.43;1.10;;;;;;;;;;4991008;28;20643;-61
2023/01/05 07:56:38;;;;;;;7.30;1.30;;;;;;;;;;5003851;28;20014;-61
2023/01/05 07:59:03;;;;;;;7.53;1.27;;;;;;;;;;4989804;28;20049;-61
2023/01/05 08:01:28;;;;;;;4.50;1.00;;;;;;;;;;4992386;28;20060;-61
2023/01/05 08:03:53;;;;;;;4.73;1.03;;;;;;;;;;5004095;28;20105;-62
2023/01/05 08:06:19;;;;;;;6.43;1.17;;;;;;;;;;4994409;28;20036;-61
2023/01/05 08:08:45;;;;;;;7.68;1.30;;;;;;;;;;4995904;28;20340;-62
2023/01/05 08:11:11;;;;;;;9.15;1.30;;;;;;;;;;5000132;28;20539;-63
2023/01/05 08:16:19;;;;;;;7.95;1.13;;;;;;;;;;5002759;28;20068;-62
2023/01/05 08:18:45;;;;;;;6.77;1.20;;;;;;;;;;5001416;28;20404;-61
2023/01/05 08:21:10;;;;;;;7.23;1.13;;;;;;;;;;4998916;28;20093;-62
2023/01/05 08:23:36;;;;;;;9.57;1.57;;;;;;;;;;5000603;28;20028;-61
2023/01/05 08:26:05;;;;;;;12.80;1.35;;;;;;;;;;4993615;28;20077;-61
2023/01/05 08:28:30;;;;;;;6.55;1.20;;;;;;;;;;4991727;28;20034;-61
2023/01/05 08:31:02;;;;;;;7.77;1.10;;;;;;;;;;5004423;28;20066;-61
2023/01/05 08:33:28;;;;;;;6.68;1.20;;;;;;;;;;5004986;28;20036;-61
2023/01/05 08:35:53;;;;;;;7.15;1.27;;;;;;;;;;5011669;28;20041;-61
2023/01/05 08:38:19;;;;;;;6.60;1.50;;;;;;;;;;5014365;28;20030;-63
2023/01/05 08:40:44;;;;;;;8.18;1.17;;;;;;;;;;5010038;28;20042;-61
2023/01/05 08:43:10;;;;;;;5.45;1.05;;;;;;;;;;5010150;28;20024;-64
2023/01/05 08:45:35;;;;;;;6.60;1.10;;;;;;;;;;4995709;28;20027;-61
2023/01/05 08:48:00;;;;;;;7.53;1.67;;;;;;;;;;5000356;28;20434;-62
2023/01/05 08:50:25;;;;;;;7.68;1.27;;;;;;;;;;4996511;28;20118;-61
2023/01/05 08:52:50;;;;;;;7.47;1.23;;;;;;;;;;4997453;28;20425;-62
2023/01/05 08:55:15;;;;;;;9.32;1.50;;;;;;;;;;4996271;28;20057;-62
2023/01/05 08:57:41;;;;;;;6.27;1.43;;;;;;;;;;4996809;28;20031;-62
2023/01/05 09:00:06;;;;;;;7.13;1.40;;;;;;;;;;4996003;28;20026;-62
2023/01/05 09:02:31;;;;;;;7.75;1.33;;;;;;;;;;4987957;28;20039;-61
2023/01/05 09:04:56;;;;;;;6.37;1.33;;;;;;;;;;4997609;28;20019;-62
2023/01/05 09:07:22;;;;;;;6.32;1.30;;;;;;;;;;4999579;28;20434;-62
2023/01/05 09:09:47;;;;;;;8.53;1.40;;;;;;;;;;5001497;28;20033;-60
2023/01/05 09:12:12;;;;;;;7.32;1.35;;;;;;;;;;4988172;28;20117;-61
2023/01/05 09:14:37;;;;;;;7.80;1.30;;;;;;;;;;5000600;28;21417;-62
2023/01/05 09:17:02;;;;;;;7.25;1.38;;;;;;;;;;4996323;28;20025;-62
2023/01/05 09:19:27;;;;;;;6.88;1.27;;;;;;;;;;4992852;28;20101;-62
2023/01/05 09:21:53;;;;;;;8.40;1.45;;;;;;;;;;4994148;28;20072;-61
2023/01/05 09:24:18;;;;;;;9.30;1.33;;;;;;;;;;5002656;28;20026;-61
2023/01/05 09:26:43;;;;;;;9.50;1.60;;;;;;;;;;4995373;28;20151;-61
2023/01/05 09:29:09;;;;;;;7.40;2.25;;;;;;;;;;4985848;28;20341;-62
2023/01/05 09:31:34;;;;;;;9.00;1.45;;;;;;;;;;4991169;28;20109;-62
2023/01/05 09:33:59;;;;;;;7.63;1.38;;;;;;;;;;4998948;28;20032;-61
2023/01/05 09:36:25;;;;;;;8.20;1.37;;;;;;;;;;4997716;28;20452;-61
2023/01/05 09:38:55;;;;;;;6.57;1.47;;;;;;;;;;5000673;28;20050;-61
2023/01/05 09:41:25;;;;;;;8.02;1.30;;;;;;;;;;5001327;28;20048;-62
2023/01/05 09:43:52;;;;;;;10.00;1.40;;;;;;;;;;5002162;28;20041;-62
2023/01/05 09:46:17;;;;;;;;;;;;;;;;;;4994153;28;20027;-62
2023/01/05 09:48:44;;;;;;;7.47;1.10;;;;;;;;;;5000677;28;19952;-62
2023/01/05 09:51:09;;;;;;;7.68;1.38;;;;;;;;;;5001289;28;20018;-62
2023/01/05 09:53:35;;;;;;;10.93;1.47;;;;;;;;;;4999498;28;20033;-62
2023/01/05 09:56:00;;;;;;;6.32;1.30;;;;;;;;;;5001561;28;20022;-62
2023/01/05 09:58:28;;;;;;;5.50;1.10;;;;;;;;;;4996655;28;20025;-61
2023/01/05 10:01:13;;;;;;;5.43;1.30;;;;;;;;;;5006248;28;20030;-61
2023/01/05 10:03:43;;;;;;;10.32;1.33;;;;;;;;;;5005636;28;20030;-62
2023/01/05 10:06:13;;;;;;;6.60;1.27;;;;;;;;;;5002897;28;20017;-61
2023/01/05 10:08:41;;;;;;;7.95;1.48;;;;;;;;;;4998116;28;20022;-63
2023/01/05 10:14:00;;;;;;;5.18;1.23;;;;;;;;;;4997394;28;20072;-63
2023/01/05 10:16:27;;;;;;;6.85;0.95;;;;;;;;;;5006543;28;20033;-62
2023/01/05 10:18:53;;;;;;;6.55;1.20;;;;;;;;;;4992212;28;20018;-62
2023/01/05 10:21:27;;;;;;;5.32;0.85;;;;;;;;;;4993184;28;20057;-62
2023/01/05 10:23:58;;;;;;;8.45;0.90;;;;;;;;;;4995023;28;20026;-65
2023/01/05 10:26:33;;;;;;;5.95;0.88;;;;;;;;;;4992189;28;20058;-62
2023/01/05 10:29:02;;;;;;;5.38;1.13;;;;;;;;;;5000453;28;20089;-63
2023/01/05 10:31:45;;;;;;;4.07;0.75;;;;;;;;;;4990124;28;20490;-63
2023/01/05 10:34:13;;;;;;;5.88;0.70;;;;;;;;;;4990257;28;20033;-61
2023/01/05 10:36:41;;;;;;;5.10;0.80;;;;;;;;;;4997486;28;20065;-61
2023/01/05 10:39:25;;;;;;;3.25;0.70;;;;;;;;;;4995564;28;20030;-61
2023/01/05 10:42:04;;;;;;;6.35;0.80;;;;;;;;;;4992550;28;20068;-61
2023/01/05 10:44:37;;;;;;;4.53;1.00;;;;;;;;;;5000954;28;20033;-61
2023/01/05 10:47:07;;;;;;;3.45;0.80;;;;;;;;;;4992500;28;20109;-61
2023/01/05 10:49:32;;;;;;;5.50;0.90;;;;;;;;;;4993749;28;20030;-62
2023/01/05 10:51:58;;;;;;;5.28;0.82;;;;;;;;;;5000022;28;20605;-61
2023/01/05 10:54:44;;;;;;;4.97;0.85;;;;;;;;;;5003021;28;20030;-62
2023/01/05 10:57:27;;;;;;;5.65;0.90;;;;;;;;;;4985592;28;20034;-61
2023/01/05 10:59:56;;;;;;;5.85;0.93;;;;;;;;;;5009417;28;20029;-62
2023/01/05 11:02:27;;;;;;;7.53;1.33;;;;;;;;;;4998818;28;20038;-61
2023/01/05 11:04:52;;;;;;;4.50;1.30;;;;;;;;;;5004117;28;20374;-61
2023/01/05 11:07:18;;;;;;;3.92;1.00;;;;;;;;;;5001087;28;20038;-61
2023/01/05 11:09:46;;;;;;;6.73;1.10;;;;;;;;;;4993194;28;20062;-61
2023/01/05 11:12:19;;;;;;;6.15;0.90;;;;;;;;;;4992858;28;20481;-62
2023/01/05 11:14:46;;;;;;;3.53;0.90;;;;;;;;;;5005220;28;20105;-62
2023/01/05 11:17:16;;;;;;;6.43;1.02;;;;;;;;;;5015009;28;20019;-62
2023/01/05 11:19:44;;;;;;;6.40;1.08;;;;;;;;;;5029726;28;20018;-62
2023/01/05 11:22:28;;;;;;;4.88;0.80;;;;;;;;;;5017288;28;20125;-61
2023/01/05 11:24:53;;;;;;;5.18;1.10;;;;;;;;;;5010237;28;20026;-61
2023/01/05 11:27:18;;;;;;;4.53;1.05;;;;;;;;;;4999610;28;20053;-62
2023/01/05 11:29:43;;;;;;;5.60;1.30;;;;;;;;;;4998361;28;20030;-63
2023/01/05 11:32:10;;;;;;;4.90;1.03;;;;;;;;;;5008937;28;20099;-61
2023/01/05 11:34:42;;;;;;;6.95;1.25;;;;;;;;;;4997584;28;20023;-63
2023/01/05 11:37:26;;;;;;;5.93;1.38;;;;;;;;;;4999670;28;20499;-61
2023/01/05 11:39:58;;;;;;;5.28;1.00;;;;;;;;;;4991675;28;20486;-61
2023/01/05 11:42:24;;;;;;;7.43;1.00;;;;;;;;;;5000661;28;20033;-61
2023/01/05 11:44:51;;;;;;;6.70;1.13;;;;;;;;;;4997219;28;20065;-62
2023/01/05 11:47:24;;;;;;;5.90;1.00;;;;;;;;;;4998814;28;20038;-63
2023/01/05 11:49:56;;;;;;;3.78;1.10;;;;;;;;;;4996746;28;20507;-63
2023/01/05 11:52:22;;;;;;;;;;;;;;;;;;5001807;28;20034;-62
2023/01/05 11:54:47;;;;;;;6.32;1.08;;;;;;;;;;4998850;28;19932;-62
2023/01/05 11:57:17;;;;;;;4.00;1.00;;;;;;;;;;4993019;28;20038;-62
2023/01/05 11:59:43;;;;;;;4.70;0.80;;;;;;;;;;5002468;28;20029;-62
2023/01/05 12:02:27;;;;;;;5.10;0.90;;;;;;;;;;5001165;28;20029;-61
2023/01/05 12:05:02;;;;;;;4.63;0.90;;;;;;;;;;4998757;28;20023;-61
2023/01/05 12:07:32;;;;;;;4.53;0.90;;;;;;;;;;5001524;28;20050;-62
2023/01/05 12:10:01;;;;;;;4.93;0.90;;;;;;;;;;4992586;28;20033;-60
2023/01/05 12:12:32;;;;;;;4.13;1.10;;;;;;;;;;5003740;28;20026;-61
2023/01/05 12:15:09;;;;;;;4.60;1.00;;;;;;;;;;4999387;28;20407;-61
2023/01/05 12:17:44;;;;;;;4.50;1.00;;;;;;;;;;4991785;28;20097;-63
2023/01/05 12:20:12;;;;;;;4.75;1.02;;;;;;;;;;4998405;28;20102;-62
2023/01/05 12:22:40;;;;;;;4.57;1.00;;;;;;;;;;5000469;28;20034;-61
2023/01/05 12:25:29;;;;;;;4.32;0.95;;;;;;;;;;4998532;28;20072;-62
2023/01/05 12:28:01;;;;;;;4.13;1.10;;;;;;;;;;4999444;28;20029;-61
2023/01/05 12:30:41;;;;;;;4.40;1.00;;;;;;;;;;4993825;28;20080;-62
2023/01/05 12:33:12;;;;;;;5.47;0.80;;;;;;;;;;4984563;28;20026;-61
2023/01/05 12:35:41;;;;;;;3.80;0.80;;;;;;;;;;4993243;28;20033;-62
2023/01/05 12:38:12;;;;;;;6.13;1.13;;;;;;;;;;4995340;28;20022;-61
2023/01/05 12:40:50;;;;;;;6.18;0.90;;;;;;;;;;4998554;28;20065;-62
2023/01/05 12:43:34;;;;;;;2.97;0.75;;;;;;;;;;4988726;28;20096;-61
2023/01/05 12:46:08;;;;;;;3.45;0.60;;;;;;;;;;4998106;28;20109;-62
2023/01/05 12:48:36;;;;;;;5.00;1.00;;;;;;;;;;4993209;28;20030;-61
2023/01/05 12:51:19;;;;;;;3.67;0.80;;;;;;;;;;4997892;28;20029;-60
2023/01/05 12:53:58;;;;;;;4.97;0.85;;;;;;;;;;4985207;28;20387;-62
2023/01/05 12:56:28;;;;;;;4.15;0.88;;;;;;;;;;5001703;28;20030;-62
2023/01/05 12:59:14;;;;;;;4.88;0.90;;;;;;;;;;5000389;28;20432;-60
2023/01/05 13:01:49;;;;;;;2.90;0.85;;;;;;;;;;4972640;28;20397;-61
2023/01/05 13:04:22;;;;;;;4.25;0.95;;;;;;;;;;4996909;28;20121;-62
2023/01/05 13:06:50;;;;;;;7.60;1.00;;;;;;;;;;4999062;28;20452;-62
2023/01/05 13:09:19;;;;;;;5.40;0.85;;;;;;;;;;4998538;28;21962;-60
2023/01/05 13:11:55;;;;;;;3.10;1.02;;;;;;;;;;4999888;28;20029;-62
2023/01/05 13:14:24;;;;;;;5.63;1.13;;;;;;;;;;5039069;23;20490;-53
2023/01/05 13:16:52;;;;;;;5.18;1.13;;;;;;;;;;5034776;28;20116;-55
2023/01/05 13:19:33;;;;;;;5.93;1.10;;;;;;;;;;5044541;28;20029;-55
2023/01/05 13:22:01;;;;;;;3.55;0.90;;;;;;;;;;5015291;28;20108;-55
2023/01/05 13:24:30;;;;;;;5.88;1.05;;;;;;;;;;5016970;28;20021;-53
2023/01/05 13:26:55;;;;;;;4.68;1.05;;;;;;;;;;5029642;28;20075;-54
2023/01/05 13:29:26;;;;;;;6.53;1.15;;;;;;;;;;5028124;28;20029;-54
2023/01/05 13:31:51;;;;;;;6.35;1.00;;;;;;;;;;5028931;28;20013;-53
2023/01/05 13:34:19;;;;;;;5.20;1.00;;;;;;;;;;5030953;28;20029;-53
2023/01/05 13:36:47;;;;;;;6.95;1.33;;;;;;;;;;5020215;28;20375;-53
2023/01/05 13:39:27;;;;;;;4.30;1.00;;;;;;;;;;5030357;28;20049;-53
2023/01/05 13:42:03;;;;;;;5.80;1.20;;;;;;;;;;5029846;28;20049;-53
2023/01/05 13:44:33;;;;;;;7.57;1.00;;;;;;;;;;5030313;28;20104;-53
2023/01/05 13:47:19;;;;;;;5.72;1.08;;;;;;;;;;5019612;28;20493;-53
2023/01/05 13:50:04;;;;;;;4.75;0.90;;;;;;;;;;5008545;28;20041;-53
2023/01/05 13:52:47;;;;;;;6.45;1.30;;;;;;;;;;5025097;28;20602;-53
2023/01/05 13:55:13;;;;;;;6.97;0.80;;;;;;;;;;5016043;28;20038;-54
2023/01/05 13:57:41;;;;;;;5.63;1.23;;;;;;;;;;5011047;28;20024;-53
2023/01/05 14:00:07;;;;;;;5.07;0.98;;;;;;;;;;5020469;28;20022;-54
2023/01/05 14:02:37;;;;;;;5.47;1.30;;;;;;;;;;5015387;28;20117;-52
2023/01/05 14:05:13;;;;;;;6.72;1.40;;;;;;;;;;5017402;28;20017;-52
2023/01/05 14:07:39;;;;;;;4.82;1.00;;;;;;;;;;5021598;28;20026;-52
2023/01/05 14:10:17;;;;;;;6.00;0.98;;;;;;;;;;5024572;28;20386;-52
2023/01/05 14:12:46;;;;;;;4.22;1.17;;;;;;;;;;5020966;28;20163;-53
2023/01/05 14:15:32;;;;;;;6.18;1.10;;;;;;;;;;5025862;28;20027;-52
2023/01/05 14:17:58;;;;;;;7.15;1.38;;;;;;;;;;5019725;28;20064;-53
2023/01/05 14:20:29;;;;;;;7.28;1.00;;;;;;;;;;5019844;28;20033;-53
2023/01/05 14:22:54;;;;;;;8.43;1.50;;;;;;;;;;5018837;28;20033;-53
2023/01/05 14:25:38;;;;;;;6.97;1.48;;;;;;;;;;5022645;28;20029;-54
2023/01/05 14:28:20;;;;;;;6.63;1.40;;;;;;;;;;5020655;28;20010;-54
2023/01/05 14:30:46;;;;;;;7.82;1.40;;;;;;;;;;5012160;28;20029;-54
2023/01/05 14:33:11;;;;;;;7.43;1.42;;;;;;;;;;5013457;28;20363;-55
2023/01/05 14:35:36;;;;;;;7.38;1.30;;;;;;;;;;5013383;28;20097;-53
2023/01/05 14:38:14;;;;;;;6.73;1.80;;;;;;;;;;5009739;28;20013;-56
2023/01/05 14:40:41;;;;;;;8.73;1.48;;;;;;;;;;4995947;28;20033;-54
2023/01/05 14:43:28;;;;;;;9.30;1.63;;;;;;;;;;5011594;28;20118;-56
2023/01/05 14:46:13;;;;;;;5.03;1.30;;;;;;;;;;5021170;28;20033;-54
2023/01/05 14:48:40;;;;;;;4.40;1.40;;;;;;;;;;5018952;28;20418;-54
2023/01/05 14:51:14;;;;;;;4.53;1.13;;;;;;;;;;5021856;28;20045;-58
2023/01/05 14:53:39;;;;;;;4.40;1.05;;;;;;;;;;5017217;28;20014;-58
2023/01/05 14:56:12;;;;;;;4.78;1.05;;;;;;;;;;5012204;28;20034;-57
2023/01/05 14:58:40;;;;;;;3.17;0.80;;;;;;;;;;5011332;28;20060;-55
2023/01/05 15:01:17;;;;;;;6.18;1.33;;;;;;;;;;5023503;28;20033;-58
2023/01/05 15:03:49;;;;;;;4.78;1.00;;;;;;;;;;5031465;28;20022;-56
2023/01/05 15:06:16;;;;;;;5.00;1.15;;;;;;;;;;5019390;28;20018;-55
2023/01/05 15:09:00;;;;;;;2.38;0.93;;;;;;;;;;5025368;28;20490;-55
2023/01/05 15:11:25;;;;;;;;;;;;;;;;;;5033114;28;20029;-54
2023/01/05 15:16:50;;;;;;;8.27;1.30;;;;;;;;;;5032172;28;20087;-53
2023/01/05 15:19:37;;;;;;;4.03;1.30;;;;;;;;;;5026232;28;20026;-54
2023/01/05 15:22:05;;;;;;;3.72;1.02;;;;;;;;;;5032087;28;20033;-53
2023/01/05 15:24:33;;;;;;;4.68;1.10;;;;;;;;;;5031886;28;20347;-55
2023/01/05 15:27:01;;;;;;;3.83;1.20;;;;;;;;;;5023594;28;20055;-54
2023/01/05 15:29:32;;;;;;;3.78;1.00;;;;;;;;;;5032056;28;20025;-55